Time;durP1;ratioP1;P1;durP2;ratioP2;P2;SDS_P1;SDS_P2;PMS_P1;PMS_P2;Temp;Humidity;BMP_temperature;BMP_pressure;BME280_temperature;BME280_humidity;BME280_pressure;Samples;Min_cycle;Max_cycle;Signal;HPM_P1;HPM_P2
2022/12/16 00:02:00;;;;;;;;;;;-0.90;99.90;;;;;;5122754;27;19927;-67
2022/12/16 00:04:25;;;;;;;;;;;-1.00;99.90;;;;;;5118700;27;19927;-67
2022/12/16 00:06:51;;;;;;;;;;;-1.00;99.90;;;;;;5121842;27;19920;-67
2022/12/16 00:09:16;;;;;;;;;;;-1.00;99.90;;;;;;5126275;27;19928;-67
2022/12/16 00:11:42;;;;;;;;;;;-1.00;99.90;;;;;;5121590;27;20034;-67
2022/12/16 00:14:07;;;;;;;;;;;-0.90;99.90;;;;;;5126033;27;19976;-67
2022/12/16 00:16:33;;;;;;;;;;;-0.90;99.90;;;;;;5121709;27;22355;-67
2022/12/16 00:18:58;;;;;;;;;;;-0.80;99.90;;;;;;5105092;27;19928;-67
2022/12/16 00:21:28;;;;;;;;;;;-0.90;99.90;;;;;;5119754;27;19927;-67
2022/12/16 00:23:54;;;;;;;;;;;-0.80;99.90;;;;;;5126243;27;19980;-67
2022/12/16 00:26:19;;;;;;;;;;;-0.80;99.90;;;;;;5124684;27;20290;-67
2022/12/16 00:28:45;;;;;;;;;;;-0.70;99.90;;;;;;5123826;27;19919;-67
2022/12/16 00:31:10;;;;;;;;;;;-0.80;99.90;;;;;;5121635;27;20036;-67
2022/12/16 00:33:36;;;;;;;;;;;-0.80;99.90;;;;;;5128404;27;19941;-67
2022/12/16 00:36:02;;;;;;;;;;;-0.80;99.90;;;;;;5105084;27;19973;-67
2022/12/16 00:38:27;;;;;;;;;;;-0.70;99.90;;;;;;5107326;27;19919;-67
2022/12/16 00:40:53;;;;;;;;;;;-0.60;99.90;;;;;;5119705;27;19919;-67
2022/12/16 00:43:19;;;;;;;;;;;-0.70;99.90;;;;;;5122098;27;19928;-67
2022/12/16 00:45:44;;;;;;;;;;;-0.70;99.90;;;;;;5120011;27;19984;-67
2022/12/16 00:48:10;;;;;;;;;;;-0.70;99.90;;;;;;5105570;27;19924;-67
2022/12/16 00:50:35;;;;;;;;;;;-0.70;99.90;;;;;;5123107;27;20480;-67
2022/12/16 00:53:01;;;;;;;;;;;-0.60;99.90;;;;;;5122943;27;19931;-67
2022/12/16 00:55:27;;;;;;;;;;;-0.70;99.90;;;;;;5125206;27;19972;-67
2022/12/16 00:57:52;;;;;;;;;;;-0.60;99.90;;;;;;5123653;27;20263;-67
2022/12/16 01:00:18;;;;;;;;;;;-0.60;99.90;;;;;;5119160;27;19927;-67
2022/12/16 01:02:45;;;;;;;;;;;-0.60;99.90;;;;;;5121965;27;19942;-67
2022/12/16 01:05:11;;;;;;;;;;;-0.70;99.90;;;;;;5123382;27;19970;-68
2022/12/16 01:07:37;;;;;;;;;;;-0.60;99.90;;;;;;5123454;27;19924;-67
2022/12/16 01:10:03;;;;;;;;;;;-0.70;99.90;;;;;;5122655;27;20301;-67
2022/12/16 01:12:28;;;;;;;;;;;-0.60;99.90;;;;;;5125497;27;19923;-67
2022/12/16 01:14:54;;;;;;;;;;;-0.60;99.90;;;;;;5127655;27;20010;-67
2022/12/16 01:17:19;;;;;;;;;;;-0.60;99.90;;;;;;5120972;27;19988;-67
2022/12/16 01:19:45;;;;;;;;;;;-0.60;99.90;;;;;;5128247;27;19968;-67
2022/12/16 01:22:10;;;;;;;;;;;-0.60;99.90;;;;;;5108615;27;20002;-67
2022/12/16 01:24:35;;;;;;;;;;;-0.50;99.90;;;;;;5128591;27;19979;-67
2022/12/16 01:27:01;;;;;;;;;;;-0.50;99.90;;;;;;5121433;27;20340;-67
2022/12/16 01:29:27;;;;;;;;;;;-0.50;99.90;;;;;;5121801;27;19919;-67
2022/12/16 01:31:52;;;;;;;;;;;-0.50;99.90;;;;;;5121422;27;19927;-67
2022/12/16 01:34:17;;;;;;;;;;;-0.50;99.90;;;;;;5121218;27;19935;-67
2022/12/16 01:36:43;;;;;;;;;;;-0.50;99.90;;;;;;5121827;27;19927;-67
2022/12/16 01:39:09;;;;;;;;;;;-0.50;99.90;;;;;;5124793;27;19935;-67
2022/12/16 01:41:35;;;;;;;;;;;-0.50;99.90;;;;;;5124923;27;19923;-66
2022/12/16 01:44:15;;;;;;;;;;;-0.50;99.90;;;;;;5125046;27;20320;-66
2022/12/16 01:46:41;;;;;;;;;;;-0.50;99.90;;;;;;5124698;27;19972;-67
2022/12/16 01:49:11;;;;;;;;;;;-0.60;99.90;;;;;;5127517;27;19926;-67
2022/12/16 01:51:38;;;;;;;;;;;-0.50;99.90;;;;;;5137438;27;19930;-66
2022/12/16 01:54:09;;;;;;;;;;;-0.40;99.90;;;;;;5126870;27;20000;-66
2022/12/16 01:56:36;;;;;;;;;;;-0.50;99.90;;;;;;5126671;27;19928;-66
2022/12/16 01:59:02;;;;;;;;;;;-0.40;99.90;;;;;;5128036;27;19923;-67
2022/12/16 02:01:28;;;;;;;;;;;-0.40;99.90;;;;;;5125011;27;19968;-66
2022/12/16 02:03:55;;;;;;;;;;;-0.50;99.90;;;;;;5109542;27;20365;-67
2022/12/16 02:06:20;;;;;;;;;;;-0.40;99.90;;;;;;5124909;27;19946;-67
2022/12/16 02:08:51;;;;;;;;;;;-0.50;99.90;;;;;;5127313;27;19927;-66
2022/12/16 02:11:17;;;;;;;;;;;-0.50;99.90;;;;;;5125163;27;19928;-67
2022/12/16 02:13:57;;;;;;;;;;;-0.40;99.90;;;;;;5127408;27;20380;-67
2022/12/16 02:16:32;;;;;;;;;;;-0.40;99.90;;;;;;5123070;27;19934;-67
2022/12/16 02:18:57;;;;;;;;;;;-0.40;99.90;;;;;;5124857;27;19919;-67
2022/12/16 02:21:29;;;;;;;;;;;-0.40;99.90;;;;;;5120768;27;19923;-67
2022/12/16 02:23:54;;;;;;;;;;;-0.40;99.90;;;;;;5122333;27;20128;-67
2022/12/16 02:26:38;;;;;;;;;;;-0.30;99.90;;;;;;5122783;27;21110;-67
2022/12/16 02:29:13;;;;;;;;;;;-0.30;99.90;;;;;;5119513;27;19931;-67
2022/12/16 02:31:52;;;;;;;;;;;-0.30;99.90;;;;;;5102524;27;19931;-67
2022/12/16 02:34:24;;;;;;;;;;;-0.30;99.90;;;;;;5120099;27;20394;-67
2022/12/16 02:37:09;;;;;;;;;;;-0.30;99.90;;;;;;5118816;27;20014;-67
2022/12/16 02:39:39;;;;;;;;;;;-0.30;99.90;;;;;;5116922;27;19926;-67
2022/12/16 02:42:08;;;;;;;;;;;-0.30;99.90;;;;;;5119169;27;20132;-66
2022/12/16 02:44:38;;;;;;;;;;;-0.30;99.90;;;;;;5121506;27;20373;-67
2022/12/16 02:47:04;;;;;;;;;;;-0.30;99.90;;;;;;5120579;27;19928;-67
2022/12/16 02:49:29;;;;;;;;;;;-0.20;99.90;;;;;;5119559;27;19920;-67
2022/12/16 02:51:56;;;;;;;;;;;-0.30;99.90;;;;;;5116351;27;20691;-67
2022/12/16 02:54:22;;;;;;;;;;;-0.10;99.90;;;;;;5105194;27;20306;-67
2022/12/16 02:57:00;;;;;;;;;;;-0.20;99.90;;;;;;5120918;27;19938;-67
2022/12/16 02:59:38;;;;;;;;;;;0.00;99.90;;;;;;5119597;27;19919;-67
2022/12/16 03:02:04;;;;;;;;;;;0.00;99.90;;;;;;5099069;27;19927;-67
2022/12/16 03:04:32;;;;;;;;;;;-0.20;99.90;;;;;;5114398;27;19933;-67
2022/12/16 03:06:59;;;;;;;;;;;-0.20;99.90;;;;;;5122728;27;19923;-67
2022/12/16 03:09:27;;;;;;;;;;;-0.20;99.90;;;;;;5118706;27;19927;-67
2022/12/16 03:11:53;;;;;;;;;;;-0.10;99.90;;;;;;5119188;27;20025;-67
2022/12/16 03:14:21;;;;;;;;;;;-0.10;99.90;;;;;;5119428;27;19927;-67
2022/12/16 03:16:48;;;;;;;;;;;-0.10;99.90;;;;;;5119795;27;19962;-67
2022/12/16 03:19:13;;;;;;;;;;;0.00;99.90;;;;;;5120296;27;20022;-67
2022/12/16 03:21:45;;;;;;;;;;;-0.10;99.90;;;;;;5119745;27;19927;-66
2022/12/16 03:24:12;;;;;;;;;;;-0.10;99.90;;;;;;5120280;27;20319;-66
2022/12/16 03:26:43;;;;;;;;;;;0.00;99.90;;;;;;5120875;27;20288;-66
2022/12/16 03:29:14;;;;;;;;;;;0.10;99.90;;;;;;5124874;27;19919;-67
2022/12/16 03:31:49;;;;;;;;;;;0.20;99.90;;;;;;5122126;27;20018;-67
2022/12/16 03:34:23;;;;;;;;;;;0.20;99.90;;;;;;5125050;27;20397;-67
2022/12/16 03:36:52;;;;;;;;;;;0.10;99.90;;;;;;5105629;27;19927;-66
2022/12/16 03:39:18;;;;;;;;;;;0.10;99.90;;;;;;5105792;27;19976;-67
2022/12/16 03:41:45;;;;;;;;;;;0.10;99.90;;;;;;5105666;27;19920;-67
2022/12/16 03:44:11;;;;;;;;;;;0.00;99.90;;;;;;5123926;27;19923;-67
2022/12/16 03:46:37;;;;;;;;;;;0.10;99.90;;;;;;5122234;27;19927;-66
2022/12/16 03:49:02;;;;;;;;;;;0.00;99.90;;;;;;5125830;27;19919;-67
2022/12/16 03:51:28;;;;;;;;;;;0.10;99.90;;;;;;5119827;27;19934;-67
2022/12/16 03:53:53;;;;;;;;;;;0.10;99.90;;;;;;5127314;27;19968;-67
2022/12/16 03:56:19;;;;;;;;;;;0.10;99.90;;;;;;5118168;27;19934;-67
2022/12/16 03:58:45;;;;;;;;;;;0.10;99.90;;;;;;5124956;27;19930;-67
2022/12/16 04:01:11;;;;;;;;;;;0.00;99.90;;;;;;5098501;27;20260;-66
2022/12/16 04:03:37;;;;;;;;;;;0.00;99.90;;;;;;5123364;27;20397;-66
2022/12/16 04:06:02;;;;;;;;;;;-0.10;99.90;;;;;;5123725;27;19934;-67
2022/12/16 04:08:28;;;;;;;;;;;0.00;99.90;;;;;;5124709;27;19923;-67
2022/12/16 04:24:38;;;;;;;;;;;-0.20;99.90;;;;;;5124059;27;20064;-67
2022/12/16 04:34:24;;;;;;;;;;;-0.30;99.90;;;;;;5121713;27;20221;-67
